Webberville, Michigan
Current Conditions -  °F | °C
As of 8:14 AM on Thursday 27 Nov 2014 (Local Time) from KOZW Reporting Station
Overcast Overcast  
Wind Chill: 22°   Ceiling: 2600
Heat Index: 28°   Visibility: 10mi
Dew Point: 24°   Wind: 6mph
Humidity: 83%   Direction: 300°WNW
Pressure: 30.13"   Gusts: NA
Location:  42.67°N, 84.17°W
Report Text: KOZW 271314Z AUTO 30005KT 10SM SCT016 BKN026 OVC037 M02/M05 A3013 RMK AO2 T10211046
Loading
Personal Weather Stations






























Interactive Weather Map New forecast layout! Learn more

10-Day Weather Forecast

Advertisements
Track Severe Weather on mobile